sensor_id;sensor_type;location;lat;lon;timestamp;temperature;humidity
6178;DHT22;3122;48.208;11.174;2022-10-19T00:03:00;12.10;6.10
6178;DHT22;3122;48.208;11.174;2022-10-19T00:08:00;12.10;5.50
6178;DHT22;3122;48.208;11.174;2022-10-19T00:13:02;12.00;4.80
6178;DHT22;3122;48.208;11.174;2022-10-19T00:18:02;12.00;6.10
6178;DHT22;3122;48.208;11.174;2022-10-19T00:23:03;12.00;6.10
6178;DHT22;3122;48.208;11.174;2022-10-19T00:28:04;12.00;7.70
6178;DHT22;3122;48.208;11.174;2022-10-19T00:33:04;12.00;7.50
6178;DHT22;3122;48.208;11.174;2022-10-19T00:38:05;11.90;9.30
6178;DHT22;3122;48.208;11.174;2022-10-19T00:43:14;11.90;10.70
6178;DHT22;3122;48.208;11.174;2022-10-19T00:48:20;12.00;10.40
6178;DHT22;3122;48.208;11.174;2022-10-19T00:53:24;11.80;8.10
6178;DHT22;3122;48.208;11.174;2022-10-19T00:58:26;11.70;8.40
6178;DHT22;3122;48.208;11.174;2022-10-19T01:03:27;11.70;9.60
6178;DHT22;3122;48.208;11.174;2022-10-19T01:08:27;11.60;10.90
6178;DHT22;3122;48.208;11.174;2022-10-19T01:13:54;11.60;10.60
6178;DHT22;3122;48.208;11.174;2022-10-19T01:29:57;11.50;10.80
6178;DHT22;3122;48.208;11.174;2022-10-19T01:35:17;11.40;10.70
6178;DHT22;3122;48.208;11.174;2022-10-19T01:56:04;11.50;13.50
6178;DHT22;3122;48.208;11.174;2022-10-19T02:01:08;11.50;12.70
6178;DHT22;3122;48.208;11.174;2022-10-19T02:06:11;11.50;13.30
6178;DHT22;3122;48.208;11.174;2022-10-19T02:11:12;11.60;13.80
6178;DHT22;3122;48.208;11.174;2022-10-19T02:16:21;11.70;15.70
6178;DHT22;3122;48.208;11.174;2022-10-19T02:21:23;11.80;14.70
6178;DHT22;3122;48.208;11.174;2022-10-19T02:26:23;11.80;15.00
6178;DHT22;3122;48.208;11.174;2022-10-19T02:31:24;11.80;14.20
6178;DHT22;3122;48.208;11.174;2022-10-19T02:36:25;11.90;15.60
6178;DHT22;3122;48.208;11.174;2022-10-19T02:42:06;11.90;14.70
6178;DHT22;3122;48.208;11.174;2022-10-19T02:52:12;11.90;15.60
6178;DHT22;3122;48.208;11.174;2022-10-19T03:02:17;11.90;17.50
6178;DHT22;3122;48.208;11.174;2022-10-19T03:07:19;11.90;18.30
6178;DHT22;3122;48.208;11.174;2022-10-19T03:12:20;11.90;18.60
6178;DHT22;3122;48.208;11.174;2022-10-19T03:17:20;12.00;19.80
6178;DHT22;3122;48.208;11.174;2022-10-19T03:22:21;12.00;20.00
6178;DHT22;3122;48.208;11.174;2022-10-19T03:27:21;12.00;19.70
6178;DHT22;3122;48.208;11.174;2022-10-19T03:32:22;12.00;20.10
6178;DHT22;3122;48.208;11.174;2022-10-19T03:37:22;12.00;20.90
6178;DHT22;3122;48.208;11.174;2022-10-19T03:42:23;12.10;23.70
6178;DHT22;3122;48.208;11.174;2022-10-19T03:47:23;12.10;21.40
6178;DHT22;3122;48.208;11.174;2022-10-19T03:52:24;12.10;22.10
6178;DHT22;3122;48.208;11.174;2022-10-19T03:57:24;12.20;22.70
6178;DHT22;3122;48.208;11.174;2022-10-19T04:02:25;12.20;23.60
6178;DHT22;3122;48.208;11.174;2022-10-19T04:07:26;12.20;24.00
6178;DHT22;3122;48.208;11.174;2022-10-19T04:12:26;12.30;23.90
6178;DHT22;3122;48.208;11.174;2022-10-19T04:17:27;12.30;23.90
6178;DHT22;3122;48.208;11.174;2022-10-19T04:22:27;12.30;24.50
6178;DHT22;3122;48.208;11.174;2022-10-19T04:27:28;12.30;25.70
6178;DHT22;3122;48.208;11.174;2022-10-19T04:32:28;12.30;25.60
6178;DHT22;3122;48.208;11.174;2022-10-19T04:37:29;12.40;25.60
6178;DHT22;3122;48.208;11.174;2022-10-19T04:42:30;12.40;26.30
6178;DHT22;3122;48.208;11.174;2022-10-19T04:47:30;12.40;26.80
6178;DHT22;3122;48.208;11.174;2022-10-19T04:52:31;12.40;26.90
6178;DHT22;3122;48.208;11.174;2022-10-19T04:57:34;12.40;27.80
6178;DHT22;3122;48.208;11.174;2022-10-19T05:02:35;12.40;28.20
6178;DHT22;3122;48.208;11.174;2022-10-19T05:07:35;12.40;27.90
6178;DHT22;3122;48.208;11.174;2022-10-19T05:12:36;12.40;28.60
6178;DHT22;3122;48.208;11.174;2022-10-19T05:17:36;12.40;29.40
6178;DHT22;3122;48.208;11.174;2022-10-19T05:22:37;12.50;29.90
6178;DHT22;3122;48.208;11.174;2022-10-19T05:27:38;12.50;29.90
6178;DHT22;3122;48.208;11.174;2022-10-19T05:32:39;12.50;29.50
6178;DHT22;3122;48.208;11.174;2022-10-19T05:37:39;12.40;29.20
6178;DHT22;3122;48.208;11.174;2022-10-19T05:42:40;12.40;30.10
6178;DHT22;3122;48.208;11.174;2022-10-19T05:47:40;12.50;30.30
6178;DHT22;3122;48.208;11.174;2022-10-19T05:52:41;12.50;31.90
6178;DHT22;3122;48.208;11.174;2022-10-19T05:57:41;12.40;31.90
6178;DHT22;3122;48.208;11.174;2022-10-19T06:02:42;12.40;33.50
6178;DHT22;3122;48.208;11.174;2022-10-19T06:07:42;12.40;33.70
6178;DHT22;3122;48.208;11.174;2022-10-19T06:12:43;12.40;35.10
6178;DHT22;3122;48.208;11.174;2022-10-19T06:17:43;12.50;35.80
6178;DHT22;3122;48.208;11.174;2022-10-19T06:22:44;12.50;36.10
6178;DHT22;3122;48.208;11.174;2022-10-19T06:27:44;12.50;37.30
6178;DHT22;3122;48.208;11.174;2022-10-19T06:32:46;12.50;37.80
6178;DHT22;3122;48.208;11.174;2022-10-19T06:37:46;12.60;38.50
6178;DHT22;3122;48.208;11.174;2022-10-19T06:42:47;12.70;39.10
6178;DHT22;3122;48.208;11.174;2022-10-19T06:47:47;12.70;40.40
6178;DHT22;3122;48.208;11.174;2022-10-19T06:52:48;12.80;41.20
6178;DHT22;3122;48.208;11.174;2022-10-19T06:57:49;12.80;42.20
6178;DHT22;3122;48.208;11.174;2022-10-19T07:02:49;12.90;42.80
6178;DHT22;3122;48.208;11.174;2022-10-19T07:07:50;13.00;43.00
6178;DHT22;3122;48.208;11.174;2022-10-19T07:12:50;13.10;43.30
6178;DHT22;3122;48.208;11.174;2022-10-19T07:17:52;13.20;43.80
6178;DHT22;3122;48.208;11.174;2022-10-19T07:22:52;13.20;44.50
6178;DHT22;3122;48.208;11.174;2022-10-19T07:27:53;13.30;43.60
6178;DHT22;3122;48.208;11.174;2022-10-19T07:32:53;13.30;44.60
6178;DHT22;3122;48.208;11.174;2022-10-19T07:37:54;13.30;44.80
6178;DHT22;3122;48.208;11.174;2022-10-19T07:42:55;13.40;45.80
6178;DHT22;3122;48.208;11.174;2022-10-19T07:47:55;13.40;46.10
6178;DHT22;3122;48.208;11.174;2022-10-19T07:52:56;13.40;46.20
6178;DHT22;3122;48.208;11.174;2022-10-19T07:57:56;13.50;45.90
6178;DHT22;3122;48.208;11.174;2022-10-19T08:03:00;13.50;46.20
6178;DHT22;3122;48.208;11.174;2022-10-19T08:08:01;13.50;45.20
6178;DHT22;3122;48.208;11.174;2022-10-19T08:13:02;13.60;45.40
6178;DHT22;3122;48.208;11.174;2022-10-19T08:18:02;13.60;44.70
6178;DHT22;3122;48.208;11.174;2022-10-19T08:23:03;13.60;43.50
6178;DHT22;3122;48.208;11.174;2022-10-19T08:28:03;13.60;41.50
6178;DHT22;3122;48.208;11.174;2022-10-19T08:33:04;13.70;43.20
6178;DHT22;3122;48.208;11.174;2022-10-19T08:38:07;13.80;41.50
6178;DHT22;3122;48.208;11.174;2022-10-19T08:43:14;13.70;41.20
6178;DHT22;3122;48.208;11.174;2022-10-19T08:48:26;13.80;41.50
6178;DHT22;3122;48.208;11.174;2022-10-19T09:09:20;13.90;38.70
6178;DHT22;3122;48.208;11.174;2022-10-19T09:14:30;13.90;39.60
6178;DHT22;3122;48.208;11.174;2022-10-19T09:19:32;14.00;38.60
6178;DHT22;3122;48.208;11.174;2022-10-19T09:25:12;14.00;38.60
6178;DHT22;3122;48.208;11.174;2022-10-19T09:30:22;14.10;38.00
6178;DHT22;3122;48.208;11.174;2022-10-19T09:35:42;14.10;36.90
6178;DHT22;3122;48.208;11.174;2022-10-19T09:40:43;14.20;37.60
6178;DHT22;3122;48.208;11.174;2022-10-19T09:46:02;14.20;38.00
6178;DHT22;3122;48.208;11.174;2022-10-19T09:51:11;14.20;37.40
6178;DHT22;3122;48.208;11.174;2022-10-19T09:56:25;14.30;36.80
6178;DHT22;3122;48.208;11.174;2022-10-19T10:01:35;14.30;37.30
6178;DHT22;3122;48.208;11.174;2022-10-19T10:06:37;14.30;34.20
6178;DHT22;3122;48.208;11.174;2022-10-19T10:11:38;14.30;35.20
6178;DHT22;3122;48.208;11.174;2022-10-19T10:16:40;14.40;31.90
6178;DHT22;3122;48.208;11.174;2022-10-19T10:21:49;14.50;30.50
6178;DHT22;3122;48.208;11.174;2022-10-19T10:26:54;14.40;27.70
6178;DHT22;3122;48.208;11.174;2022-10-19T10:32:18;14.50;29.00
6178;DHT22;3122;48.208;11.174;2022-10-19T10:37:21;14.60;28.60
6178;DHT22;3122;48.208;11.174;2022-10-19T10:42:55;14.60;28.20
6178;DHT22;3122;48.208;11.174;2022-10-19T10:48:06;14.70;25.90
6178;DHT22;3122;48.208;11.174;2022-10-19T10:53:34;14.80;22.40
6178;DHT22;3122;48.208;11.174;2022-10-19T10:58:44;14.90;21.20
6178;DHT22;3122;48.208;11.174;2022-10-19T11:03:59;14.90;19.60
6178;DHT22;3122;48.208;11.174;2022-10-19T11:19:36;14.90;13.20
6178;DHT22;3122;48.208;11.174;2022-10-19T11:30:19;15.00;11.40
6178;DHT22;3122;48.208;11.174;2022-10-19T12:06:44;15.00;2.30
6178;DHT22;3122;48.208;11.174;2022-10-19T12:11:51;15.00;2.80
6178;DHT22;3122;48.208;11.174;2022-10-19T12:16:57;15.10;1.00
6178;DHT22;3122;48.208;11.174;2022-10-19T12:22:04;15.10;1.00
6178;DHT22;3122;48.208;11.174;2022-10-19T12:27:11;15.10;1.00
6178;DHT22;3122;48.208;11.174;2022-10-19T12:32:14;15.10;1.00
6178;DHT22;3122;48.208;11.174;2022-10-19T12:42:48;15.30;1.00
6178;DHT22;3122;48.208;11.174;2022-10-19T13:03:42;15.40;1.00
6178;DHT22;3122;48.208;11.174;2022-10-19T13:08:54;15.30;1.00
6178;DHT22;3122;48.208;11.174;2022-10-19T13:14:06;15.20;1.00
6178;DHT22;3122;48.208;11.174;2022-10-19T13:19:26;15.30;1.00
6178;DHT22;3122;48.208;11.174;2022-10-19T13:24:32;15.40;1.00
6178;DHT22;3122;48.208;11.174;2022-10-19T13:34:37;15.80;1.00
6178;DHT22;3122;48.208;11.174;2022-10-19T13:39:38;15.80;1.00
6178;DHT22;3122;48.208;11.174;2022-10-19T13:44:44;15.80;1.00
6178;DHT22;3122;48.208;11.174;2022-10-19T13:49:58;15.60;1.00
6178;DHT22;3122;48.208;11.174;2022-10-19T14:00:25;15.40;1.00
6178;DHT22;3122;48.208;11.174;2022-10-19T14:16:00;15.40;1.00
6178;DHT22;3122;48.208;11.174;2022-10-19T14:21:05;15.50;1.00
6178;DHT22;3122;48.208;11.174;2022-10-19T14:26:13;15.50;1.00
6178;DHT22;3122;48.208;11.174;2022-10-19T14:31:21;15.50;1.00
6178;DHT22;3122;48.208;11.174;2022-10-19T14:36:25;15.50;1.00
6178;DHT22;3122;48.208;11.174;2022-10-19T14:46:32;15.40;1.00
6178;DHT22;3122;48.208;11.174;2022-10-19T14:56:55;15.40;1.00
6178;DHT22;3122;48.208;11.174;2022-10-19T15:01:59;15.30;1.00
6178;DHT22;3122;48.208;11.174;2022-10-19T15:07:49;15.30;1.00
6178;DHT22;3122;48.208;11.174;2022-10-19T15:12:34;15.30;1.00
6178;DHT22;3122;48.208;11.174;2022-10-19T15:17:49;15.30;1.00
6178;DHT22;3122;48.208;11.174;2022-10-19T15:22:50;15.20;1.00
6178;DHT22;3122;48.208;11.174;2022-10-19T15:27:51;15.20;1.00
6178;DHT22;3122;48.208;11.174;2022-10-19T15:38:23;14.90;1.00
6178;DHT22;3122;48.208;11.174;2022-10-19T15:53:40;14.70;1.00
6178;DHT22;3122;48.208;11.174;2022-10-19T15:58:41;14.60;1.00
6178;DHT22;3122;48.208;11.174;2022-10-19T16:03:41;14.60;1.00
6178;DHT22;3122;48.208;11.174;2022-10-19T16:08:42;14.50;1.00
6178;DHT22;3122;48.208;11.174;2022-10-19T16:13:45;14.50;1.00
6178;DHT22;3122;48.208;11.174;2022-10-19T16:18:46;14.40;1.00
6178;DHT22;3122;48.208;11.174;2022-10-19T16:23:47;14.20;1.00
6178;DHT22;3122;48.208;11.174;2022-10-19T16:28:47;14.00;1.00
6178;DHT22;3122;48.208;11.174;2022-10-19T16:33:48;13.90;1.00
6178;DHT22;3122;48.208;11.174;2022-10-19T16:38:50;13.80;1.00
6178;DHT22;3122;48.208;11.174;2022-10-19T16:43:54;13.80;1.00
6178;DHT22;3122;48.208;11.174;2022-10-19T16:48:55;13.80;1.00
6178;DHT22;3122;48.208;11.174;2022-10-19T16:53:56;13.60;1.00
6178;DHT22;3122;48.208;11.174;2022-10-19T16:59:03;13.50;1.00
6178;DHT22;3122;48.208;11.174;2022-10-19T17:04:04;13.40;1.00
6178;DHT22;3122;48.208;11.174;2022-10-19T17:09:05;13.30;1.00
6178;DHT22;3122;48.208;11.174;2022-10-19T17:14:10;13.20;1.00
6178;DHT22;3122;48.208;11.174;2022-10-19T17:19:10;13.10;1.00
6178;DHT22;3122;48.208;11.174;2022-10-19T17:24:15;13.10;1.00
6178;DHT22;3122;48.208;11.174;2022-10-19T17:29:15;13.00;1.00
6178;DHT22;3122;48.208;11.174;2022-10-19T17:34:16;12.90;1.00
6178;DHT22;3122;48.208;11.174;2022-10-19T17:39:19;12.70;1.00
6178;DHT22;3122;48.208;11.174;2022-10-19T17:44:21;12.60;1.00
6178;DHT22;3122;48.208;11.174;2022-10-19T17:49:21;12.60;1.00
6178;DHT22;3122;48.208;11.174;2022-10-19T17:54:22;12.60;1.00
6178;DHT22;3122;48.208;11.174;2022-10-19T17:59:23;12.50;1.00
6178;DHT22;3122;48.208;11.174;2022-10-19T18:04:23;12.50;1.00
6178;DHT22;3122;48.208;11.174;2022-10-19T18:09:24;12.50;1.00
6178;DHT22;3122;48.208;11.174;2022-10-19T18:14:24;12.40;1.00
6178;DHT22;3122;48.208;11.174;2022-10-19T18:19:25;12.40;1.00
6178;DHT22;3122;48.208;11.174;2022-10-19T18:24:25;12.40;1.00
6178;DHT22;3122;48.208;11.174;2022-10-19T18:29:26;12.50;1.00
6178;DHT22;3122;48.208;11.174;2022-10-19T18:34:27;12.50;1.00
6178;DHT22;3122;48.208;11.174;2022-10-19T18:39:27;12.50;1.00
6178;DHT22;3122;48.208;11.174;2022-10-19T18:44:28;12.40;1.00
6178;DHT22;3122;48.208;11.174;2022-10-19T18:49:28;12.30;1.00
6178;DHT22;3122;48.208;11.174;2022-10-19T18:54:29;12.30;1.00
6178;DHT22;3122;48.208;11.174;2022-10-19T18:59:30;12.30;1.00
6178;DHT22;3122;48.208;11.174;2022-10-19T19:04:30;12.20;1.00
6178;DHT22;3122;48.208;11.174;2022-10-19T19:09:31;12.00;1.00
6178;DHT22;3122;48.208;11.174;2022-10-19T19:14:31;11.90;1.00
6178;DHT22;3122;48.208;11.174;2022-10-19T19:19:32;11.90;1.00
6178;DHT22;3122;48.208;11.174;2022-10-19T19:24:32;11.80;1.00
6178;DHT22;3122;48.208;11.174;2022-10-19T19:29:33;11.80;1.00
6178;DHT22;3122;48.208;11.174;2022-10-19T19:34:34;11.80;1.00
6178;DHT22;3122;48.208;11.174;2022-10-19T19:39:34;11.60;1.00
6178;DHT22;3122;48.208;11.174;2022-10-19T19:44:35;11.60;1.00
6178;DHT22;3122;48.208;11.174;2022-10-19T19:49:36;11.50;1.00
6178;DHT22;3122;48.208;11.174;2022-10-19T19:54:36;11.40;1.00
6178;DHT22;3122;48.208;11.174;2022-10-19T19:59:37;11.40;1.00
6178;DHT22;3122;48.208;11.174;2022-10-19T20:04:37;11.30;1.00
6178;DHT22;3122;48.208;11.174;2022-10-19T20:09:38;11.30;1.00
6178;DHT22;3122;48.208;11.174;2022-10-19T20:14:38;11.20;1.00
6178;DHT22;3122;48.208;11.174;2022-10-19T20:19:39;11.00;1.00
6178;DHT22;3122;48.208;11.174;2022-10-19T20:24:39;11.00;1.00
6178;DHT22;3122;48.208;11.174;2022-10-19T20:29:40;11.00;1.00
6178;DHT22;3122;48.208;11.174;2022-10-19T20:34:41;10.90;1.00
6178;DHT22;3122;48.208;11.174;2022-10-19T20:39:41;10.80;1.00
6178;DHT22;3122;48.208;11.174;2022-10-19T20:44:42;10.70;1.00
6178;DHT22;3122;48.208;11.174;2022-10-19T20:49:43;10.70;1.00
6178;DHT22;3122;48.208;11.174;2022-10-19T20:54:43;10.60;1.00
6178;DHT22;3122;48.208;11.174;2022-10-19T20:59:44;10.60;1.00
6178;DHT22;3122;48.208;11.174;2022-10-19T21:04:45;10.50;1.00
6178;DHT22;3122;48.208;11.174;2022-10-19T21:09:45;10.60;1.00
6178;DHT22;3122;48.208;11.174;2022-10-19T21:14:47;10.50;1.00
6178;DHT22;3122;48.208;11.174;2022-10-19T21:19:48;10.60;1.00
6178;DHT22;3122;48.208;11.174;2022-10-19T21:24:48;10.50;1.00
6178;DHT22;3122;48.208;11.174;2022-10-19T21:29:49;10.40;1.00
6178;DHT22;3122;48.208;11.174;2022-10-19T21:34:49;10.40;1.00
6178;DHT22;3122;48.208;11.174;2022-10-19T21:39:50;10.30;1.00
6178;DHT22;3122;48.208;11.174;2022-10-19T21:44:50;10.30;1.00
6178;DHT22;3122;48.208;11.174;2022-10-19T21:49:51;10.10;1.00
6178;DHT22;3122;48.208;11.174;2022-10-19T21:54:52;10.10;1.00
6178;DHT22;3122;48.208;11.174;2022-10-19T21:59:53;10.10;1.00
6178;DHT22;3122;48.208;11.174;2022-10-19T22:04:53;10.10;1.00
6178;DHT22;3122;48.208;11.174;2022-10-19T22:09:54;10.10;1.00
6178;DHT22;3122;48.208;11.174;2022-10-19T22:14:55;10.10;1.00
6178;DHT22;3122;48.208;11.174;2022-10-19T22:19:56;10.00;1.00
6178;DHT22;3122;48.208;11.174;2022-10-19T22:24:57;10.00;1.00
6178;DHT22;3122;48.208;11.174;2022-10-19T22:29:57;10.00;1.00
6178;DHT22;3122;48.208;11.174;2022-10-19T22:34:58;10.00;1.00
6178;DHT22;3122;48.208;11.174;2022-10-19T22:39:59;10.00;1.00
6178;DHT22;3122;48.208;11.174;2022-10-19T22:45:00;9.90;1.00
6178;DHT22;3122;48.208;11.174;2022-10-19T22:50:01;10.00;1.00
6178;DHT22;3122;48.208;11.174;2022-10-19T22:55:01;10.00;1.00
6178;DHT22;3122;48.208;11.174;2022-10-19T23:00:03;10.00;1.00
6178;DHT22;3122;48.208;11.174;2022-10-19T23:05:04;9.90;1.00
6178;DHT22;3122;48.208;11.174;2022-10-19T23:10:05;9.70;1.00
6178;DHT22;3122;48.208;11.174;2022-10-19T23:15:06;9.70;1.00
6178;DHT22;3122;48.208;11.174;2022-10-19T23:20:08;9.70;1.00
6178;DHT22;3122;48.208;11.174;2022-10-19T23:25:08;9.70;1.00
6178;DHT22;3122;48.208;11.174;2022-10-19T23:30:09;9.60;1.00
6178;DHT22;3122;48.208;11.174;2022-10-19T23:35:10;9.70;1.00
6178;DHT22;3122;48.208;11.174;2022-10-19T23:40:11;9.80;1.00
6178;DHT22;3122;48.208;11.174;2022-10-19T23:45:11;9.90;1.00
6178;DHT22;3122;48.208;11.174;2022-10-19T23:50:14;10.00;1.00
6178;DHT22;3122;48.208;11.174;2022-10-19T23:55:15;10.00;1.00
